sensor_id;sensor_type;location;lat;lon;timestamp;P1;durP1;ratioP1;P2;durP2;ratioP2
52432;SDS011;38352;53.244;6.594;2024-03-02T00:00:21;8.40;;;4.00;;
52432;SDS011;38352;53.244;6.594;2024-03-02T00:02:48;7.35;;;3.75;;
52432;SDS011;38352;53.244;6.594;2024-03-02T00:05:15;9.48;;;3.90;;
52432;SDS011;38352;53.244;6.594;2024-03-02T00:07:42;6.07;;;3.22;;
52432;SDS011;38352;53.244;6.594;2024-03-02T00:10:09;8.60;;;3.75;;
52432;SDS011;38352;53.244;6.594;2024-03-02T00:12:38;7.18;;;3.92;;
52432;SDS011;38352;53.244;6.594;2024-03-02T00:15:05;8.23;;;3.45;;
52432;SDS011;38352;53.244;6.594;2024-03-02T00:17:32;6.55;;;3.83;;
52432;SDS011;38352;53.244;6.594;2024-03-02T00:19:58;6.32;;;3.35;;
52432;SDS011;38352;53.244;6.594;2024-03-02T00:22:25;7.22;;;3.63;;
52432;SDS011;38352;53.244;6.594;2024-03-02T00:24:51;8.60;;;3.90;;
52432;SDS011;38352;53.244;6.594;2024-03-02T00:27:18;8.20;;;3.55;;
52432;SDS011;38352;53.244;6.594;2024-03-02T00:29:45;5.88;;;3.17;;
52432;SDS011;38352;53.244;6.594;2024-03-02T00:32:12;6.32;;;3.47;;
52432;SDS011;38352;53.244;6.594;2024-03-02T00:34:38;6.38;;;3.95;;
52432;SDS011;38352;53.244;6.594;2024-03-02T00:37:04;5.72;;;3.30;;
52432;SDS011;38352;53.244;6.594;2024-03-02T00:39:31;7.30;;;3.83;;
52432;SDS011;38352;53.244;6.594;2024-03-02T00:41:57;6.43;;;3.35;;
52432;SDS011;38352;53.244;6.594;2024-03-02T00:44:24;6.28;;;3.70;;
52432;SDS011;38352;53.244;6.594;2024-03-02T00:46:59;8.55;;;3.78;;
52432;SDS011;38352;53.244;6.594;2024-03-02T00:49:25;5.95;;;3.35;;
52432;SDS011;38352;53.244;6.594;2024-03-02T00:51:53;6.63;;;3.55;;
52432;SDS011;38352;53.244;6.594;2024-03-02T00:54:23;5.30;;;3.67;;
52432;SDS011;38352;53.244;6.594;2024-03-02T00:56:51;6.40;;;3.78;;
52432;SDS011;38352;53.244;6.594;2024-03-02T00:59:17;7.38;;;4.40;;
52432;SDS011;38352;53.244;6.594;2024-03-02T01:01:43;7.65;;;3.60;;
52432;SDS011;38352;53.244;6.594;2024-03-02T01:04:10;6.43;;;3.83;;
52432;SDS011;38352;53.244;6.594;2024-03-02T01:06:36;6.35;;;3.85;;
52432;SDS011;38352;53.244;6.594;2024-03-02T01:09:02;10.27;;;4.75;;
52432;SDS011;38352;53.244;6.594;2024-03-02T01:11:28;6.68;;;4.10;;
52432;SDS011;38352;53.244;6.594;2024-03-02T01:13:55;7.38;;;4.13;;
52432;SDS011;38352;53.244;6.594;2024-03-02T01:16:21;7.63;;;3.85;;
52432;SDS011;38352;53.244;6.594;2024-03-02T01:18:47;6.60;;;3.72;;
52432;SDS011;38352;53.244;6.594;2024-03-02T01:21:14;8.43;;;3.95;;
52432;SDS011;38352;53.244;6.594;2024-03-02T01:23:40;9.85;;;4.32;;
52432;SDS011;38352;53.244;6.594;2024-03-02T01:26:06;7.05;;;4.20;;
52432;SDS011;38352;53.244;6.594;2024-03-02T01:28:32;7.70;;;4.50;;
52432;SDS011;38352;53.244;6.594;2024-03-02T01:30:59;7.47;;;4.07;;
52432;SDS011;38352;53.244;6.594;2024-03-02T01:33:25;7.38;;;4.18;;
52432;SDS011;38352;53.244;6.594;2024-03-02T01:35:51;7.28;;;4.15;;
52432;SDS011;38352;53.244;6.594;2024-03-02T01:38:17;7.32;;;3.95;;
52432;SDS011;38352;53.244;6.594;2024-03-02T01:40:43;7.50;;;3.70;;
52432;SDS011;38352;53.244;6.594;2024-03-02T01:43:12;8.02;;;3.83;;
52432;SDS011;38352;53.244;6.594;2024-03-02T01:45:38;7.25;;;3.50;;
52432;SDS011;38352;53.244;6.594;2024-03-02T01:48:05;7.85;;;3.80;;
52432;SDS011;38352;53.244;6.594;2024-03-02T01:50:32;6.93;;;4.18;;
52432;SDS011;38352;53.244;6.594;2024-03-02T01:52:59;7.35;;;4.32;;
52432;SDS011;38352;53.244;6.594;2024-03-02T01:55:25;8.48;;;4.30;;
52432;SDS011;38352;53.244;6.594;2024-03-02T01:57:54;6.82;;;3.95;;
52432;SDS011;38352;53.244;6.594;2024-03-02T02:00:20;9.32;;;4.30;;
52432;SDS011;38352;53.244;6.594;2024-03-02T02:02:50;6.90;;;4.43;;
52432;SDS011;38352;53.244;6.594;2024-03-02T02:05:16;8.00;;;4.30;;
52432;SDS011;38352;53.244;6.594;2024-03-02T02:07:43;7.68;;;4.40;;
52432;SDS011;38352;53.244;6.594;2024-03-02T02:10:09;10.13;;;4.35;;
52432;SDS011;38352;53.244;6.594;2024-03-02T02:12:36;8.38;;;4.18;;
52432;SDS011;38352;53.244;6.594;2024-03-02T02:15:03;5.80;;;3.88;;
52432;SDS011;38352;53.244;6.594;2024-03-02T02:17:29;7.00;;;4.22;;
52432;SDS011;38352;53.244;6.594;2024-03-02T02:19:55;7.10;;;4.10;;
52432;SDS011;38352;53.244;6.594;2024-03-02T02:22:24;8.18;;;4.13;;
52432;SDS011;38352;53.244;6.594;2024-03-02T02:24:50;8.20;;;4.45;;
52432;SDS011;38352;53.244;6.594;2024-03-02T02:27:16;7.90;;;4.07;;
52432;SDS011;38352;53.244;6.594;2024-03-02T02:29:42;7.60;;;4.50;;
52432;SDS011;38352;53.244;6.594;2024-03-02T02:32:08;6.78;;;3.95;;
52432;SDS011;38352;53.244;6.594;2024-03-02T02:34:34;8.45;;;4.28;;
52432;SDS011;38352;53.244;6.594;2024-03-02T02:37:00;7.13;;;4.03;;
52432;SDS011;38352;53.244;6.594;2024-03-02T02:39:26;8.43;;;4.28;;
52432;SDS011;38352;53.244;6.594;2024-03-02T02:41:53;6.05;;;3.60;;
52432;SDS011;38352;53.244;6.594;2024-03-02T02:44:19;6.30;;;4.03;;
52432;SDS011;38352;53.244;6.594;2024-03-02T02:46:47;6.80;;;3.72;;
52432;SDS011;38352;53.244;6.594;2024-03-02T02:49:13;7.97;;;3.83;;
52432;SDS011;38352;53.244;6.594;2024-03-02T02:51:39;6.68;;;3.53;;
52432;SDS011;38352;53.244;6.594;2024-03-02T02:54:06;7.13;;;3.65;;
52432;SDS011;38352;53.244;6.594;2024-03-02T02:56:32;8.23;;;4.38;;
52432;SDS011;38352;53.244;6.594;2024-03-02T02:58:58;6.82;;;3.67;;
52432;SDS011;38352;53.244;6.594;2024-03-02T03:01:25;6.70;;;4.03;;
52432;SDS011;38352;53.244;6.594;2024-03-02T03:03:51;6.35;;;3.35;;
52432;SDS011;38352;53.244;6.594;2024-03-02T03:06:17;8.45;;;3.67;;
52432;SDS011;38352;53.244;6.594;2024-03-02T03:08:43;7.32;;;4.15;;
52432;SDS011;38352;53.244;6.594;2024-03-02T03:11:09;7.82;;;3.50;;
52432;SDS011;38352;53.244;6.594;2024-03-02T03:13:35;6.10;;;3.25;;
52432;SDS011;38352;53.244;6.594;2024-03-02T03:16:01;7.75;;;3.90;;
52432;SDS011;38352;53.244;6.594;2024-03-02T03:18:28;7.45;;;3.28;;
52432;SDS011;38352;53.244;6.594;2024-03-02T03:20:54;7.50;;;3.45;;
52432;SDS011;38352;53.244;6.594;2024-03-02T03:23:20;6.32;;;3.30;;
52432;SDS011;38352;53.244;6.594;2024-03-02T03:25:47;6.25;;;3.45;;
52432;SDS011;38352;53.244;6.594;2024-03-02T03:28:13;6.75;;;3.22;;
52432;SDS011;38352;53.244;6.594;2024-03-02T03:30:39;5.55;;;2.90;;
52432;SDS011;38352;53.244;6.594;2024-03-02T03:33:06;5.53;;;3.08;;
52432;SDS011;38352;53.244;6.594;2024-03-02T03:35:32;5.93;;;3.13;;
52432;SDS011;38352;53.244;6.594;2024-03-02T03:37:59;6.28;;;2.90;;
52432;SDS011;38352;53.244;6.594;2024-03-02T03:40:26;6.03;;;2.72;;
52432;SDS011;38352;53.244;6.594;2024-03-02T03:42:52;7.68;;;2.60;;
52432;SDS011;38352;53.244;6.594;2024-03-02T03:45:18;4.97;;;2.90;;
52432;SDS011;38352;53.244;6.594;2024-03-02T03:47:45;5.38;;;2.50;;
52432;SDS011;38352;53.244;6.594;2024-03-02T03:50:11;6.85;;;2.50;;
52432;SDS011;38352;53.244;6.594;2024-03-02T03:52:37;4.57;;;2.28;;
52432;SDS011;38352;53.244;6.594;2024-03-02T03:55:03;5.30;;;2.78;;
52432;SDS011;38352;53.244;6.594;2024-03-02T03:57:33;4.28;;;2.50;;
52432;SDS011;38352;53.244;6.594;2024-03-02T03:59:59;5.50;;;2.58;;
52432;SDS011;38352;53.244;6.594;2024-03-02T04:02:25;5.80;;;2.30;;
52432;SDS011;38352;53.244;6.594;2024-03-02T04:04:51;4.55;;;2.63;;
52432;SDS011;38352;53.244;6.594;2024-03-02T04:07:17;5.63;;;2.47;;
52432;SDS011;38352;53.244;6.594;2024-03-02T04:09:43;7.28;;;2.50;;
52432;SDS011;38352;53.244;6.594;2024-03-02T04:12:09;6.20;;;2.70;;
52432;SDS011;38352;53.244;6.594;2024-03-02T04:14:38;7.43;;;2.80;;
52432;SDS011;38352;53.244;6.594;2024-03-02T04:17:04;5.20;;;2.35;;
52432;SDS011;38352;53.244;6.594;2024-03-02T04:19:30;3.72;;;2.33;;
52432;SDS011;38352;53.244;6.594;2024-03-02T04:21:56;4.93;;;2.85;;
52432;SDS011;38352;53.244;6.594;2024-03-02T04:24:22;5.88;;;2.58;;
52432;SDS011;38352;53.244;6.594;2024-03-02T04:26:48;4.68;;;2.70;;
52432;SDS011;38352;53.244;6.594;2024-03-02T04:29:15;4.85;;;2.67;;
52432;SDS011;38352;53.244;6.594;2024-03-02T04:31:41;5.40;;;2.70;;
52432;SDS011;38352;53.244;6.594;2024-03-02T04:34:07;4.38;;;2.60;;
52432;SDS011;38352;53.244;6.594;2024-03-02T04:36:33;4.97;;;3.03;;
52432;SDS011;38352;53.244;6.594;2024-03-02T04:38:59;4.90;;;2.58;;
52432;SDS011;38352;53.244;6.594;2024-03-02T04:41:25;5.50;;;3.25;;
52432;SDS011;38352;53.244;6.594;2024-03-02T04:43:54;5.13;;;2.80;;
52432;SDS011;38352;53.244;6.594;2024-03-02T04:46:20;7.50;;;3.10;;
52432;SDS011;38352;53.244;6.594;2024-03-02T04:48:46;5.80;;;2.78;;
52432;SDS011;38352;53.244;6.594;2024-03-02T04:51:20;5.33;;;2.77;;
52432;SDS011;38352;53.244;6.594;2024-03-02T04:53:46;6.97;;;3.13;;
52432;SDS011;38352;53.244;6.594;2024-03-02T04:56:12;5.80;;;2.65;;
52432;SDS011;38352;53.244;6.594;2024-03-02T04:58:57;5.70;;;3.20;;
52432;SDS011;38352;53.244;6.594;2024-03-02T05:01:23;5.43;;;3.10;;
52432;SDS011;38352;53.244;6.594;2024-03-02T05:03:49;4.93;;;2.58;;
52432;SDS011;38352;53.244;6.594;2024-03-02T05:06:15;5.28;;;2.50;;
52432;SDS011;38352;53.244;6.594;2024-03-02T05:08:41;4.75;;;2.70;;
52432;SDS011;38352;53.244;6.594;2024-03-02T05:11:07;6.03;;;2.95;;
52432;SDS011;38352;53.244;6.594;2024-03-02T05:14:11;6.20;;;3.00;;
52432;SDS011;38352;53.244;6.594;2024-03-02T05:16:37;5.78;;;2.88;;
52432;SDS011;38352;53.244;6.594;2024-03-02T05:19:03;5.68;;;2.85;;
52432;SDS011;38352;53.244;6.594;2024-03-02T05:21:32;9.90;;;3.20;;
52432;SDS011;38352;53.244;6.594;2024-03-02T05:23:58;5.25;;;2.95;;
52432;SDS011;38352;53.244;6.594;2024-03-02T05:26:24;5.90;;;2.80;;
52432;SDS011;38352;53.244;6.594;2024-03-02T05:28:50;4.63;;;2.80;;
52432;SDS011;38352;53.244;6.594;2024-03-02T05:31:17;5.03;;;2.78;;
52432;SDS011;38352;53.244;6.594;2024-03-02T05:33:43;4.88;;;2.50;;
52432;SDS011;38352;53.244;6.594;2024-03-02T05:36:09;5.07;;;2.60;;
52432;SDS011;38352;53.244;6.594;2024-03-02T05:38:35;7.30;;;3.13;;
52432;SDS011;38352;53.244;6.594;2024-03-02T05:41:02;5.30;;;2.95;;
52432;SDS011;38352;53.244;6.594;2024-03-02T05:43:28;5.72;;;3.20;;
52432;SDS011;38352;53.244;6.594;2024-03-02T05:45:54;6.97;;;3.33;;
52432;SDS011;38352;53.244;6.594;2024-03-02T05:48:20;5.22;;;2.58;;
52432;SDS011;38352;53.244;6.594;2024-03-02T05:50:46;5.63;;;3.13;;
52432;SDS011;38352;53.244;6.594;2024-03-02T05:53:12;5.55;;;3.05;;
52432;SDS011;38352;53.244;6.594;2024-03-02T05:55:40;6.90;;;3.42;;
52432;SDS011;38352;53.244;6.594;2024-03-02T05:58:06;5.90;;;2.95;;
52432;SDS011;38352;53.244;6.594;2024-03-02T06:00:51;7.20;;;3.15;;
52432;SDS011;38352;53.244;6.594;2024-03-02T06:03:17;6.90;;;2.92;;
52432;SDS011;38352;53.244;6.594;2024-03-02T06:05:43;6.78;;;3.10;;
52432;SDS011;38352;53.244;6.594;2024-03-02T06:08:09;5.32;;;2.92;;
52432;SDS011;38352;53.244;6.594;2024-03-02T06:10:35;5.13;;;2.65;;
52432;SDS011;38352;53.244;6.594;2024-03-02T06:13:01;6.10;;;3.50;;
52432;SDS011;38352;53.244;6.594;2024-03-02T06:15:27;6.03;;;3.15;;
52432;SDS011;38352;53.244;6.594;2024-03-02T06:17:53;5.35;;;3.45;;
52432;SDS011;38352;53.244;6.594;2024-03-02T06:20:19;5.93;;;3.17;;
52432;SDS011;38352;53.244;6.594;2024-03-02T06:22:46;5.18;;;3.00;;
52432;SDS011;38352;53.244;6.594;2024-03-02T06:25:12;5.93;;;3.25;;
52432;SDS011;38352;53.244;6.594;2024-03-02T06:27:38;6.35;;;3.10;;
52432;SDS011;38352;53.244;6.594;2024-03-02T06:30:05;6.85;;;3.30;;
52432;SDS011;38352;53.244;6.594;2024-03-02T06:32:31;6.80;;;3.42;;
52432;SDS011;38352;53.244;6.594;2024-03-02T06:34:57;4.88;;;3.00;;
52432;SDS011;38352;53.244;6.594;2024-03-02T06:37:24;7.57;;;3.35;;
52432;SDS011;38352;53.244;6.594;2024-03-02T06:39:50;6.53;;;2.95;;
52432;SDS011;38352;53.244;6.594;2024-03-02T06:42:16;6.90;;;2.88;;
52432;SDS011;38352;53.244;6.594;2024-03-02T06:44:43;7.55;;;2.80;;
52432;SDS011;38352;53.244;6.594;2024-03-02T06:47:09;5.15;;;2.90;;
52432;SDS011;38352;53.244;6.594;2024-03-02T06:49:35;6.03;;;3.28;;
52432;SDS011;38352;53.244;6.594;2024-03-02T06:52:01;7.00;;;3.28;;
52432;SDS011;38352;53.244;6.594;2024-03-02T06:54:27;5.82;;;3.35;;
52432;SDS011;38352;53.244;6.594;2024-03-02T06:56:53;7.93;;;3.28;;
52432;SDS011;38352;53.244;6.594;2024-03-02T06:59:19;5.85;;;2.70;;
52432;SDS011;38352;53.244;6.594;2024-03-02T07:01:45;7.88;;;3.08;;
52432;SDS011;38352;53.244;6.594;2024-03-02T07:04:11;5.75;;;3.30;;
52432;SDS011;38352;53.244;6.594;2024-03-02T07:06:37;5.68;;;3.22;;
52432;SDS011;38352;53.244;6.594;2024-03-02T07:09:04;5.18;;;2.40;;
52432;SDS011;38352;53.244;6.594;2024-03-02T07:11:30;4.70;;;2.60;;
52432;SDS011;38352;53.244;6.594;2024-03-02T07:13:56;6.28;;;2.85;;
52432;SDS011;38352;53.244;6.594;2024-03-02T07:16:22;4.93;;;2.63;;
52432;SDS011;38352;53.244;6.594;2024-03-02T07:18:59;5.38;;;2.80;;
52432;SDS011;38352;53.244;6.594;2024-03-02T07:21:27;4.47;;;2.47;;
52432;SDS011;38352;53.244;6.594;2024-03-02T07:23:53;4.40;;;2.40;;
52432;SDS011;38352;53.244;6.594;2024-03-02T07:26:19;3.90;;;2.35;;
52432;SDS011;38352;53.244;6.594;2024-03-02T07:28:46;4.63;;;2.70;;
52432;SDS011;38352;53.244;6.594;2024-03-02T07:31:13;6.43;;;2.83;;
52432;SDS011;38352;53.244;6.594;2024-03-02T07:33:39;6.18;;;3.25;;
52432;SDS011;38352;53.244;6.594;2024-03-02T07:36:05;7.63;;;2.95;;
52432;SDS011;38352;53.244;6.594;2024-03-02T07:38:32;4.90;;;2.88;;
52432;SDS011;38352;53.244;6.594;2024-03-02T07:41:00;8.30;;;3.20;;
52432;SDS011;38352;53.244;6.594;2024-03-02T07:43:27;6.45;;;3.20;;
52432;SDS011;38352;53.244;6.594;2024-03-02T07:45:53;6.82;;;3.22;;
52432;SDS011;38352;53.244;6.594;2024-03-02T07:48:20;9.93;;;3.25;;
52432;SDS011;38352;53.244;6.594;2024-03-02T07:50:47;5.80;;;3.00;;
52432;SDS011;38352;53.244;6.594;2024-03-02T07:53:13;5.30;;;3.35;;
52432;SDS011;38352;53.244;6.594;2024-03-02T07:55:39;8.13;;;3.45;;
52432;SDS011;38352;53.244;6.594;2024-03-02T07:58:06;10.15;;;3.80;;
52432;SDS011;38352;53.244;6.594;2024-03-02T08:00:32;6.13;;;3.38;;
52432;SDS011;38352;53.244;6.594;2024-03-02T08:02:58;9.07;;;3.92;;
52432;SDS011;38352;53.244;6.594;2024-03-02T08:05:25;7.13;;;3.22;;
52432;SDS011;38352;53.244;6.594;2024-03-02T08:07:52;6.38;;;3.17;;
52432;SDS011;38352;53.244;6.594;2024-03-02T08:10:18;7.28;;;3.17;;
52432;SDS011;38352;53.244;6.594;2024-03-02T08:12:45;6.25;;;3.38;;
52432;SDS011;38352;53.244;6.594;2024-03-02T08:15:11;5.57;;;3.28;;
52432;SDS011;38352;53.244;6.594;2024-03-02T08:17:40;7.22;;;3.75;;
52432;SDS011;38352;53.244;6.594;2024-03-02T08:20:13;5.68;;;3.10;;
52432;SDS011;38352;53.244;6.594;2024-03-02T08:22:39;5.10;;;2.90;;
52432;SDS011;38352;53.244;6.594;2024-03-02T08:25:06;5.75;;;3.17;;
52432;SDS011;38352;53.244;6.594;2024-03-02T08:27:33;6.68;;;2.85;;
52432;SDS011;38352;53.244;6.594;2024-03-02T08:29:59;7.35;;;3.38;;
52432;SDS011;38352;53.244;6.594;2024-03-02T08:32:25;5.90;;;3.42;;
52432;SDS011;38352;53.244;6.594;2024-03-02T08:34:51;4.38;;;2.70;;
52432;SDS011;38352;53.244;6.594;2024-03-02T08:37:17;5.57;;;2.70;;
52432;SDS011;38352;53.244;6.594;2024-03-02T08:39:44;6.28;;;2.70;;
52432;SDS011;38352;53.244;6.594;2024-03-02T08:42:10;4.13;;;1.98;;
52432;SDS011;38352;53.244;6.594;2024-03-02T08:44:36;3.63;;;2.05;;
52432;SDS011;38352;53.244;6.594;2024-03-02T08:47:03;4.28;;;1.92;;
52432;SDS011;38352;53.244;6.594;2024-03-02T08:49:29;3.35;;;1.58;;
52432;SDS011;38352;53.244;6.594;2024-03-02T08:51:55;3.25;;;1.70;;
52432;SDS011;38352;53.244;6.594;2024-03-02T08:54:21;2.95;;;1.50;;
52432;SDS011;38352;53.244;6.594;2024-03-02T08:56:48;3.25;;;1.58;;
52432;SDS011;38352;53.244;6.594;2024-03-02T08:59:14;3.25;;;1.63;;
52432;SDS011;38352;53.244;6.594;2024-03-02T09:01:40;2.83;;;1.50;;
52432;SDS011;38352;53.244;6.594;2024-03-02T09:04:07;3.03;;;1.40;;
52432;SDS011;38352;53.244;6.594;2024-03-02T09:06:36;2.33;;;1.30;;
52432;SDS011;38352;53.244;6.594;2024-03-02T09:09:02;4.13;;;1.70;;
52432;SDS011;38352;53.244;6.594;2024-03-02T09:11:29;2.53;;;1.60;;
52432;SDS011;38352;53.244;6.594;2024-03-02T09:13:55;2.83;;;1.15;;
52432;SDS011;38352;53.244;6.594;2024-03-02T09:16:22;3.25;;;1.70;;
52432;SDS011;38352;53.244;6.594;2024-03-02T09:18:49;2.65;;;1.60;;
52432;SDS011;38352;53.244;6.594;2024-03-02T09:21:15;4.63;;;1.55;;
52432;SDS011;38352;53.244;6.594;2024-03-02T09:23:41;3.22;;;1.33;;
52432;SDS011;38352;53.244;6.594;2024-03-02T09:26:09;3.60;;;1.38;;
52432;SDS011;38352;53.244;6.594;2024-03-02T09:28:42;3.35;;;1.45;;
52432;SDS011;38352;53.244;6.594;2024-03-02T09:31:08;5.20;;;1.30;;
52432;SDS011;38352;53.244;6.594;2024-03-02T09:33:34;1.83;;;1.10;;
52432;SDS011;38352;53.244;6.594;2024-03-02T09:36:00;2.78;;;1.30;;
52432;SDS011;38352;53.244;6.594;2024-03-02T09:38:26;2.53;;;1.25;;
52432;SDS011;38352;53.244;6.594;2024-03-02T09:40:52;3.60;;;1.30;;
52432;SDS011;38352;53.244;6.594;2024-03-02T09:43:18;3.30;;;1.30;;
52432;SDS011;38352;53.244;6.594;2024-03-02T09:45:45;2.92;;;1.00;;
52432;SDS011;38352;53.244;6.594;2024-03-02T09:48:11;3.58;;;1.30;;
52432;SDS011;38352;53.244;6.594;2024-03-02T09:50:37;3.80;;;1.10;;
52432;SDS011;38352;53.244;6.594;2024-03-02T09:53:03;2.45;;;1.02;;
52432;SDS011;38352;53.244;6.594;2024-03-02T09:55:30;1.83;;;1.08;;
52432;SDS011;38352;53.244;6.594;2024-03-02T09:57:56;2.05;;;1.05;;
52432;SDS011;38352;53.244;6.594;2024-03-02T10:00:22;2.50;;;0.93;;
52432;SDS011;38352;53.244;6.594;2024-03-02T10:02:49;6.57;;;1.10;;
52432;SDS011;38352;53.244;6.594;2024-03-02T10:05:25;2.03;;;1.00;;
52432;SDS011;38352;53.244;6.594;2024-03-02T10:08:00;1.90;;;0.98;;
52432;SDS011;38352;53.244;6.594;2024-03-02T10:10:36;1.85;;;1.02;;
52432;SDS011;38352;53.244;6.594;2024-03-02T10:13:07;1.85;;;0.93;;
52432;SDS011;38352;53.244;6.594;2024-03-02T10:15:37;2.25;;;1.13;;
52432;SDS011;38352;53.244;6.594;2024-03-02T10:18:07;3.90;;;1.52;;
52432;SDS011;38352;53.244;6.594;2024-03-02T10:20:34;2.08;;;0.93;;
52432;SDS011;38352;53.244;6.594;2024-03-02T10:23:14;3.25;;;1.00;;
52432;SDS011;38352;53.244;6.594;2024-03-02T10:25:41;4.20;;;1.20;;
52432;SDS011;38352;53.244;6.594;2024-03-02T10:28:07;2.88;;;1.00;;
52432;SDS011;38352;53.244;6.594;2024-03-02T10:30:34;2.38;;;1.00;;
52432;SDS011;38352;53.244;6.594;2024-03-02T10:33:01;2.47;;;0.90;;
52432;SDS011;38352;53.244;6.594;2024-03-02T10:35:27;4.18;;;1.15;;
52432;SDS011;38352;53.244;6.594;2024-03-02T10:37:53;1.70;;;0.85;;
52432;SDS011;38352;53.244;6.594;2024-03-02T10:40:23;1.60;;;0.80;;
52432;SDS011;38352;53.244;6.594;2024-03-02T10:42:52;2.55;;;1.27;;
52432;SDS011;38352;53.244;6.594;2024-03-02T10:45:19;3.30;;;1.25;;
52432;SDS011;38352;53.244;6.594;2024-03-02T10:47:47;3.78;;;1.02;;
52432;SDS011;38352;53.244;6.594;2024-03-02T10:50:13;2.95;;;0.95;;
52432;SDS011;38352;53.244;6.594;2024-03-02T10:52:39;2.58;;;0.90;;
52432;SDS011;38352;53.244;6.594;2024-03-02T10:55:06;2.65;;;1.02;;
52432;SDS011;38352;53.244;6.594;2024-03-02T10:57:41;2.08;;;1.15;;
52432;SDS011;38352;53.244;6.594;2024-03-02T11:00:11;4.15;;;1.20;;
52432;SDS011;38352;53.244;6.594;2024-03-02T11:02:41;2.67;;;1.08;;
52432;SDS011;38352;53.244;6.594;2024-03-02T11:05:08;4.60;;;1.50;;
52432;SDS011;38352;53.244;6.594;2024-03-02T11:07:36;1.70;;;1.02;;
52432;SDS011;38352;53.244;6.594;2024-03-02T11:10:03;1.83;;;1.08;;
52432;SDS011;38352;53.244;6.594;2024-03-02T11:12:44;4.72;;;1.13;;
52432;SDS011;38352;53.244;6.594;2024-03-02T11:15:16;2.38;;;1.20;;
52432;SDS011;38352;53.244;6.594;2024-03-02T11:17:44;3.65;;;1.25;;
52432;SDS011;38352;53.244;6.594;2024-03-02T11:20:11;3.28;;;1.25;;
52432;SDS011;38352;53.244;6.594;2024-03-02T11:22:38;2.95;;;1.30;;
52432;SDS011;38352;53.244;6.594;2024-03-02T11:25:04;4.00;;;1.75;;
52432;SDS011;38352;53.244;6.594;2024-03-02T11:32:57;2.97;;;1.17;;
52432;SDS011;38352;53.244;6.594;2024-03-02T11:35:24;2.10;;;1.20;;
52432;SDS011;38352;53.244;6.594;2024-03-02T11:37:51;1.80;;;1.00;;
52432;SDS011;38352;53.244;6.594;2024-03-02T11:40:23;4.30;;;1.13;;
52432;SDS011;38352;53.244;6.594;2024-03-02T11:42:50;3.25;;;1.35;;
52432;SDS011;38352;53.244;6.594;2024-03-02T11:45:17;4.40;;;1.40;;
52432;SDS011;38352;53.244;6.594;2024-03-02T11:47:46;3.58;;;1.20;;
52432;SDS011;38352;53.244;6.594;2024-03-02T11:50:15;2.25;;;1.20;;
52432;SDS011;38352;53.244;6.594;2024-03-02T11:52:42;2.47;;;1.20;;
52432;SDS011;38352;53.244;6.594;2024-03-02T11:55:08;2.63;;;1.30;;
52432;SDS011;38352;53.244;6.594;2024-03-02T11:57:35;2.25;;;1.42;;
52432;SDS011;38352;53.244;6.594;2024-03-02T12:00:02;3.90;;;1.83;;
52432;SDS011;38352;53.244;6.594;2024-03-02T12:02:28;3.30;;;1.10;;
52432;SDS011;38352;53.244;6.594;2024-03-02T12:04:54;2.75;;;1.40;;
52432;SDS011;38352;53.244;6.594;2024-03-02T12:07:23;3.63;;;1.13;;
52432;SDS011;38352;53.244;6.594;2024-03-02T12:09:49;3.55;;;1.30;;
52432;SDS011;38352;53.244;6.594;2024-03-02T12:12:25;4.18;;;1.40;;
52432;SDS011;38352;53.244;6.594;2024-03-02T12:14:52;2.63;;;1.63;;
52432;SDS011;38352;53.244;6.594;2024-03-02T12:17:20;2.92;;;1.65;;
52432;SDS011;38352;53.244;6.594;2024-03-02T12:19:46;3.60;;;1.45;;
52432;SDS011;38352;53.244;6.594;2024-03-02T12:22:12;4.70;;;1.20;;
52432;SDS011;38352;53.244;6.594;2024-03-02T12:24:38;4.60;;;1.42;;
52432;SDS011;38352;53.244;6.594;2024-03-02T12:27:08;1.92;;;1.15;;
52432;SDS011;38352;53.244;6.594;2024-03-02T12:29:34;4.07;;;1.30;;
52432;SDS011;38352;53.244;6.594;2024-03-02T12:32:00;2.20;;;1.00;;
52432;SDS011;38352;53.244;6.594;2024-03-02T12:34:27;4.13;;;1.40;;
52432;SDS011;38352;53.244;6.594;2024-03-02T12:36:53;3.40;;;1.50;;
52432;SDS011;38352;53.244;6.594;2024-03-02T12:39:19;2.50;;;1.52;;
52432;SDS011;38352;53.244;6.594;2024-03-02T12:41:48;2.58;;;1.38;;
52432;SDS011;38352;53.244;6.594;2024-03-02T12:44:16;3.92;;;1.50;;
52432;SDS011;38352;53.244;6.594;2024-03-02T12:46:43;2.80;;;1.52;;
52432;SDS011;38352;53.244;6.594;2024-03-02T12:49:12;3.13;;;1.80;;
52432;SDS011;38352;53.244;6.594;2024-03-02T12:51:39;3.72;;;2.05;;
52432;SDS011;38352;53.244;6.594;2024-03-02T12:54:06;4.88;;;2.35;;
52432;SDS011;38352;53.244;6.594;2024-03-02T12:56:32;6.03;;;2.30;;
52432;SDS011;38352;53.244;6.594;2024-03-02T12:58:59;4.05;;;2.17;;
52432;SDS011;38352;53.244;6.594;2024-03-02T13:01:25;4.78;;;2.42;;
52432;SDS011;38352;53.244;6.594;2024-03-02T13:03:52;4.53;;;2.03;;
52432;SDS011;38352;53.244;6.594;2024-03-02T13:06:20;4.00;;;1.98;;
52432;SDS011;38352;53.244;6.594;2024-03-02T13:08:46;4.97;;;2.42;;
52432;SDS011;38352;53.244;6.594;2024-03-02T13:11:13;2.97;;;2.33;;
52432;SDS011;38352;53.244;6.594;2024-03-02T13:13:39;6.35;;;2.75;;
52432;SDS011;38352;53.244;6.594;2024-03-02T13:16:12;5.80;;;2.30;;
52432;SDS011;38352;53.244;6.594;2024-03-02T13:18:39;3.60;;;2.53;;
52432;SDS011;38352;53.244;6.594;2024-03-02T13:21:05;6.75;;;2.63;;
52432;SDS011;38352;53.244;6.594;2024-03-02T13:23:32;3.80;;;2.83;;
52432;SDS011;38352;53.244;6.594;2024-03-02T13:25:58;5.32;;;3.40;;
52432;SDS011;38352;53.244;6.594;2024-03-02T13:28:24;4.85;;;3.33;;
52432;SDS011;38352;53.244;6.594;2024-03-02T13:30:51;6.72;;;3.92;;
52432;SDS011;38352;53.244;6.594;2024-03-02T13:33:17;4.57;;;3.65;;
52432;SDS011;38352;53.244;6.594;2024-03-02T13:35:51;4.85;;;4.10;;
52432;SDS011;38352;53.244;6.594;2024-03-02T13:38:18;5.80;;;3.70;;
52432;SDS011;38352;53.244;6.594;2024-03-02T13:40:44;6.60;;;4.43;;
52432;SDS011;38352;53.244;6.594;2024-03-02T13:43:11;5.63;;;3.90;;
52432;SDS011;38352;53.244;6.594;2024-03-02T13:45:37;5.57;;;4.20;;
52432;SDS011;38352;53.244;6.594;2024-03-02T13:48:04;5.43;;;3.95;;
52432;SDS011;38352;53.244;6.594;2024-03-02T13:50:30;5.95;;;3.80;;
52432;SDS011;38352;53.244;6.594;2024-03-02T13:52:56;6.63;;;3.75;;
52432;SDS011;38352;53.244;6.594;2024-03-02T13:55:22;5.63;;;3.70;;
52432;SDS011;38352;53.244;6.594;2024-03-02T13:57:49;6.72;;;3.90;;
52432;SDS011;38352;53.244;6.594;2024-03-02T14:00:17;5.05;;;3.92;;
52432;SDS011;38352;53.244;6.594;2024-03-02T14:02:45;6.50;;;3.88;;
52432;SDS011;38352;53.244;6.594;2024-03-02T14:05:11;5.63;;;3.88;;
52432;SDS011;38352;53.244;6.594;2024-03-02T14:07:38;5.78;;;3.67;;
52432;SDS011;38352;53.244;6.594;2024-03-02T14:10:05;6.03;;;3.80;;
52432;SDS011;38352;53.244;6.594;2024-03-02T14:12:31;4.97;;;3.53;;
52432;SDS011;38352;53.244;6.594;2024-03-02T14:14:57;5.25;;;3.65;;
52432;SDS011;38352;53.244;6.594;2024-03-02T14:17:26;4.75;;;3.25;;
52432;SDS011;38352;53.244;6.594;2024-03-02T14:19:52;5.13;;;3.17;;
52432;SDS011;38352;53.244;6.594;2024-03-02T14:22:19;4.38;;;2.70;;
52432;SDS011;38352;53.244;6.594;2024-03-02T14:24:45;5.05;;;3.13;;
52432;SDS011;38352;53.244;6.594;2024-03-02T14:27:12;3.88;;;2.75;;
52432;SDS011;38352;53.244;6.594;2024-03-02T14:29:39;3.67;;;2.50;;
52432;SDS011;38352;53.244;6.594;2024-03-02T14:32:06;6.82;;;2.70;;
52432;SDS011;38352;53.244;6.594;2024-03-02T14:34:32;4.93;;;2.47;;
52432;SDS011;38352;53.244;6.594;2024-03-02T14:36:58;4.35;;;2.30;;
52432;SDS011;38352;53.244;6.594;2024-03-02T14:39:25;3.88;;;2.20;;
52432;SDS011;38352;53.244;6.594;2024-03-02T14:41:51;5.13;;;2.58;;
52432;SDS011;38352;53.244;6.594;2024-03-02T14:44:17;3.72;;;2.20;;
52432;SDS011;38352;53.244;6.594;2024-03-02T14:46:46;4.25;;;2.10;;
52432;SDS011;38352;53.244;6.594;2024-03-02T14:49:13;4.93;;;2.30;;
52432;SDS011;38352;53.244;6.594;2024-03-02T14:51:39;4.53;;;2.70;;